createdAt,value
2024-02-29T00:01:11.127Z,2.13
2024-02-29T00:03:39.303Z,2.38
2024-02-29T00:06:09.193Z,2.90
2024-02-29T00:08:36.273Z,2.42
2024-02-29T00:11:04.552Z,2.60
2024-02-29T00:13:32.306Z,2.40
2024-02-29T00:16:03.738Z,2.47
2024-02-29T00:18:31.439Z,2.78
2024-02-29T00:20:58.787Z,3.30
2024-02-29T00:23:35.463Z,2.38
2024-02-29T00:26:02.769Z,3.25
2024-02-29T00:28:34.741Z,2.40
2024-02-29T00:31:04.512Z,2.60
2024-02-29T00:33:31.810Z,2.63
2024-02-29T00:36:09.988Z,2.30
2024-02-29T00:38:40.324Z,2.78
2024-02-29T00:41:16.158Z,2.08
2024-02-29T00:43:49.200Z,3.00
2024-02-29T00:46:19.221Z,3.28
2024-02-29T00:48:46.928Z,3.15
2024-02-29T00:51:14.351Z,1.90
2024-02-29T00:53:41.907Z,2.13
2024-02-29T00:56:18.106Z,2.55
2024-02-29T00:58:48.258Z,3.05
2024-02-29T01:01:15.896Z,1.73
2024-02-29T01:03:45.884Z,2.10
2024-02-29T01:06:14.785Z,2.60
2024-02-29T01:08:43.716Z,2.30
2024-02-29T01:11:13.928Z,2.40
2024-02-29T01:13:47.413Z,2.55
2024-02-29T01:16:25.858Z,2.10
2024-02-29T01:18:53.402Z,2.13
2024-02-29T01:21:21.914Z,1.83
2024-02-29T01:23:49.872Z,1.85
2024-02-29T01:26:33.305Z,2.22
2024-02-29T01:29:05.591Z,2.60
2024-02-29T01:31:35.817Z,2.30
2024-02-29T01:34:06.318Z,2.47
2024-02-29T01:36:33.634Z,1.95
2024-02-29T01:39:07.065Z,2.40
2024-02-29T01:41:34.777Z,1.60
2024-02-29T01:44:02.360Z,2.15
2024-02-29T01:46:31.540Z,2.35
2024-02-29T01:49:02.056Z,1.98
2024-02-29T01:51:30.411Z,2.78
2024-02-29T01:54:00.436Z,2.13
2024-02-29T01:56:28.750Z,2.20
2024-02-29T01:59:01.835Z,2.30
2024-02-29T02:01:38.512Z,2.05
2024-02-29T02:04:08.886Z,2.25
2024-02-29T02:06:37.444Z,2.60
2024-02-29T02:09:07.125Z,2.50
2024-02-29T02:11:41.919Z,2.08
2024-02-29T02:14:11.065Z,2.03
2024-02-29T02:16:38.706Z,2.00
2024-02-29T02:19:15.241Z,1.90
2024-02-29T02:21:43.287Z,2.70
2024-02-29T02:24:11.124Z,2.63
2024-02-29T02:26:41.818Z,2.78
2024-02-29T02:29:08.992Z,2.78
2024-02-29T02:31:36.738Z,2.95
2024-02-29T02:34:05.334Z,1.65
2024-02-29T02:36:33.040Z,2.35
2024-02-29T02:39:03.307Z,2.15
2024-02-29T02:41:37.257Z,2.20
2024-02-29T02:44:16.286Z,2.60
2024-02-29T02:46:46.596Z,2.65
2024-02-29T02:49:15.584Z,2.25
2024-02-29T02:51:43.534Z,2.47
2024-02-29T02:54:10.913Z,2.80
2024-02-29T02:56:38.365Z,3.78
2024-02-29T02:59:09.968Z,2.33
2024-02-29T03:01:38.281Z,2.20
2024-02-29T03:04:10.701Z,2.08
2024-02-29T03:06:38.273Z,2.15
2024-02-29T03:09:09.186Z,2.15
2024-02-29T03:11:38.580Z,2.10
2024-02-29T03:14:07.268Z,2.25
2024-02-29T03:16:38.729Z,1.95
2024-02-29T03:19:06.195Z,1.95
2024-02-29T03:21:34.268Z,1.65
2024-02-29T03:24:06.708Z,2.22
2024-02-29T03:26:42.714Z,2.63
2024-02-29T03:29:09.807Z,2.50
2024-02-29T03:31:46.909Z,2.08
2024-02-29T03:34:14.764Z,2.75
2024-02-29T03:36:42.951Z,3.67
2024-02-29T03:39:10.539Z,3.10
2024-02-29T03:41:38.842Z,2.70
2024-02-29T03:44:06.069Z,2.30
2024-02-29T03:46:33.769Z,2.42
2024-02-29T03:49:07.077Z,1.95
2024-02-29T03:51:38.200Z,2.72
2024-02-29T03:54:08.365Z,2.53
2024-02-29T03:56:35.839Z,2.65
2024-02-29T03:59:02.970Z,2.65
2024-02-29T04:01:30.194Z,2.45
2024-02-29T04:03:57.603Z,2.03
2024-02-29T04:06:27.790Z,2.80
2024-02-29T04:09:01.017Z,3.00
2024-02-29T04:11:33.558Z,2.10
2024-02-29T04:14:05.972Z,3.03
2024-02-29T04:16:49.867Z,3.50
2024-02-29T04:19:18.228Z,3.13
2024-02-29T04:21:46.501Z,3.97
2024-02-29T04:24:19.436Z,4.35
2024-02-29T04:26:49.354Z,4.68
2024-02-29T04:29:16.679Z,3.67
2024-02-29T04:31:51.045Z,2.67
2024-02-29T04:34:18.454Z,4.57
2024-02-29T04:36:51.524Z,4.20
2024-02-29T04:39:21.710Z,3.17
2024-02-29T04:41:49.572Z,3.35
2024-02-29T04:44:19.189Z,3.75
2024-02-29T04:46:46.780Z,3.42
2024-02-29T04:49:17.745Z,3.63
2024-02-29T04:51:49.057Z,3.65
2024-02-29T04:54:20.058Z,2.97
2024-02-29T04:56:47.931Z,3.35
2024-02-29T04:59:18.602Z,3.47
2024-02-29T05:01:46.292Z,3.60
2024-02-29T05:04:16.574Z,3.70
2024-02-29T05:06:50.791Z,3.25
2024-02-29T05:09:18.058Z,2.60
2024-02-29T05:11:45.698Z,3.35
2024-02-29T05:14:13.019Z,4.65
2024-02-29T05:16:40.286Z,5.70
2024-02-29T05:19:08.036Z,3.92
2024-02-29T05:21:36.215Z,3.50
2024-02-29T05:24:08.879Z,3.55
2024-02-29T05:26:36.120Z,3.30
2024-02-29T05:29:04.928Z,3.80
2024-02-29T05:31:38.371Z,5.95
2024-02-29T05:34:06.138Z,3.83
2024-02-29T05:36:34.041Z,7.45
2024-02-29T05:39:01.515Z,5.55
2024-02-29T05:41:29.276Z,4.10
2024-02-29T05:44:00.508Z,4.03
2024-02-29T05:46:31.529Z,3.58
2024-02-29T05:49:15.518Z,4.90
2024-02-29T05:51:48.758Z,9.70
2024-02-29T05:54:16.571Z,6.95
2024-02-29T05:56:43.713Z,5.05
2024-02-29T05:59:14.489Z,4.40
2024-02-29T06:01:45.507Z,4.35
2024-02-29T06:04:14.774Z,4.10
2024-02-29T06:06:42.752Z,4.28
2024-02-29T06:09:18.225Z,4.28
2024-02-29T06:11:45.643Z,4.60
2024-02-29T06:14:17.348Z,4.63
2024-02-29T06:16:44.707Z,4.72
2024-02-29T06:19:18.691Z,3.58
2024-02-29T06:22:04.480Z,3.78
2024-02-29T06:24:37.667Z,3.53
2024-02-29T06:27:05.507Z,3.70
2024-02-29T06:29:33.230Z,4.20
2024-02-29T06:32:04.381Z,4.03
2024-02-29T06:34:31.837Z,3.47
2024-02-29T06:36:59.191Z,4.50
2024-02-29T06:39:30.083Z,4.32
2024-02-29T06:42:08.106Z,4.40
2024-02-29T06:44:35.389Z,4.55
2024-02-29T06:47:02.882Z,4.45
2024-02-29T06:49:30.221Z,3.92
2024-02-29T06:52:13.913Z,4.13
2024-02-29T06:54:45.739Z,4.55
2024-02-29T06:59:48.713Z,7.10
2024-02-29T07:02:18.382Z,5.10
2024-02-29T07:04:46.767Z,5.32
2024-02-29T07:07:14.675Z,4.38
2024-02-29T07:09:46.672Z,8.65
2024-02-29T07:14:54.101Z,4.78
2024-02-29T07:17:42.951Z,24.35
2024-02-29T07:20:21.712Z,8.88
2024-02-29T07:22:54.985Z,4.82
2024-02-29T07:25:26.862Z,6.38
2024-02-29T07:28:18.697Z,46.45
2024-02-29T07:31:12.870Z,7.85
2024-02-29T07:33:43.897Z,4.82
2024-02-29T07:36:27.322Z,6.25
2024-02-29T07:38:55.968Z,23.27
2024-02-29T07:41:36.004Z,79.47
2024-02-29T07:44:32.335Z,31.80
2024-02-29T07:47:00.465Z,47.72
2024-02-29T07:49:28.409Z,15.35
2024-02-29T07:52:06.875Z,21.48
2024-02-29T07:54:37.304Z,10.30
2024-02-29T07:57:09.869Z,7.72
2024-02-29T07:59:37.628Z,9.60
2024-02-29T08:02:05.315Z,9.18
2024-02-29T08:04:44.172Z,10.48
2024-02-29T08:07:18.492Z,7.50
2024-02-29T08:09:46.355Z,7.97
2024-02-29T08:12:17.965Z,5.55
2024-02-29T08:14:51.237Z,6.38
2024-02-29T08:17:30.500Z,6.50
2024-02-29T08:20:11.347Z,6.25
2024-02-29T08:22:43.495Z,6.63
2024-02-29T08:25:15.322Z,5.35
2024-02-29T08:27:52.041Z,6.13
2024-02-29T08:30:24.907Z,5.28
2024-02-29T08:32:52.608Z,16.63
2024-02-29T08:35:26.117Z,7.22
2024-02-29T08:38:02.538Z,5.80
2024-02-29T08:40:37.214Z,6.82
2024-02-29T08:43:25.004Z,7.47
2024-02-29T08:46:01.827Z,6.35
2024-02-29T08:48:29.778Z,6.30
2024-02-29T09:11:00.412Z,7.25
2024-02-29T09:13:36.822Z,9.13
2024-02-29T09:16:13.590Z,9.40
2024-02-29T09:18:41.871Z,6.45
2024-02-29T09:21:21.220Z,6.50
2024-02-29T09:23:51.735Z,5.28
2024-02-29T09:26:19.940Z,5.43
2024-02-29T09:31:45.596Z,4.88
2024-02-29T09:34:39.081Z,3.95
2024-02-29T09:37:53.899Z,4.05
2024-02-29T09:40:49.194Z,3.67
2024-02-29T09:43:22.161Z,2.90
2024-02-29T09:45:52.035Z,3.60
2024-02-29T09:48:27.097Z,3.50
2024-02-29T09:50:56.856Z,3.42
2024-02-29T09:53:58.389Z,3.92
2024-02-29T09:56:40.619Z,3.65
2024-02-29T09:59:23.129Z,3.38
2024-02-29T10:01:53.747Z,3.53
2024-02-29T10:04:22.795Z,3.95
2024-02-29T10:06:53.388Z,4.18
2024-02-29T10:09:34.506Z,4.13
2024-02-29T10:12:03.391Z,4.68
2024-02-29T10:17:18.499Z,4.40
2024-02-29T10:20:33.078Z,4.18
2024-02-29T10:23:00.516Z,4.57
2024-02-29T10:25:40.245Z,4.60
2024-02-29T10:28:17.884Z,3.42
2024-02-29T10:30:56.328Z,4.88
2024-02-29T10:33:25.493Z,4.93
2024-02-29T10:35:54.362Z,4.30
2024-02-29T10:38:25.401Z,4.28
2024-02-29T10:41:06.220Z,4.70
2024-02-29T10:43:34.478Z,4.45
2024-02-29T10:46:11.187Z,5.10
2024-02-29T10:48:55.020Z,4.15
2024-02-29T10:51:57.506Z,3.55
2024-02-29T10:54:49.484Z,2.67
2024-02-29T10:57:25.978Z,3.50
2024-02-29T11:00:04.868Z,3.85
2024-02-29T11:02:45.252Z,3.85
2024-02-29T11:05:18.036Z,4.53
2024-02-29T11:07:49.417Z,4.28
2024-02-29T11:10:20.124Z,4.20
2024-02-29T11:13:13.256Z,4.75
2024-02-29T11:15:46.605Z,5.78
2024-02-29T11:18:37.531Z,4.70
2024-02-29T11:28:56.606Z,7.85
2024-02-29T11:31:24.290Z,6.78
2024-02-29T11:33:56.544Z,6.28
2024-02-29T11:36:33.783Z,6.72
2024-02-29T11:39:27.569Z,6.40
2024-02-29T11:42:25.546Z,5.80
2024-02-29T11:44:53.455Z,5.97
2024-02-29T11:47:26.734Z,5.80
2024-02-29T11:50:26.906Z,7.13
2024-02-29T11:53:02.862Z,7.22
2024-02-29T11:59:34.064Z,6.72
2024-02-29T12:02:08.745Z,9.32
2024-02-29T12:04:50.285Z,6.30
2024-02-29T12:07:40.028Z,6.72
2024-02-29T12:10:42.874Z,4.45
2024-02-29T12:14:43.636Z,6.13
2024-02-29T12:17:17.100Z,6.30
2024-02-29T12:19:54.996Z,5.93
2024-02-29T12:22:47.562Z,6.35
2024-02-29T12:25:34.472Z,4.93
2024-02-29T12:28:16.120Z,5.70
2024-02-29T12:30:54.570Z,5.85
2024-02-29T12:33:47.472Z,9.80
2024-02-29T12:36:22.990Z,7.47
2024-02-29T12:38:54.474Z,6.30
2024-02-29T12:41:58.179Z,6.07
2024-02-29T12:44:28.247Z,5.88
2024-02-29T12:47:01.287Z,6.70
2024-02-29T12:49:30.900Z,7.07
2024-02-29T12:52:05.284Z,5.90
2024-02-29T12:54:37.889Z,6.68
2024-02-29T12:57:12.251Z,8.50
2024-02-29T12:59:43.370Z,71.35
2024-02-29T13:02:18.047Z,27.52
2024-02-29T13:04:48.725Z,154.18
2024-02-29T13:07:21.563Z,120.00
2024-02-29T13:09:53.020Z,157.00
2024-02-29T13:12:28.729Z,17.85
2024-02-29T13:15:01.083Z,75.88
2024-02-29T13:17:38.739Z,48.85
2024-02-29T13:20:14.861Z,45.80
2024-02-29T13:22:50.224Z,82.18
2024-02-29T13:25:55.023Z,23.08
2024-02-29T13:28:24.303Z,70.25
2024-02-29T13:30:54.310Z,113.35
2024-02-29T13:33:24.180Z,51.60
2024-02-29T13:35:51.717Z,100.85
2024-02-29T13:38:20.276Z,50.65
2024-02-29T13:40:51.241Z,68.43
2024-02-29T13:43:25.712Z,42.30
2024-02-29T13:45:58.950Z,33.80
2024-02-29T13:48:31.125Z,141.10
2024-02-29T13:50:58.801Z,91.82
2024-02-29T13:53:39.372Z,91.95
2024-02-29T13:56:10.339Z,30.08
2024-02-29T13:58:37.788Z,66.00
2024-02-29T14:01:09.520Z,20.38
2024-02-29T14:03:39.203Z,27.67
2024-02-29T14:06:09.852Z,76.60
2024-02-29T14:08:37.591Z,133.60
2024-02-29T14:11:10.329Z,19.83
2024-02-29T14:13:40.795Z,87.32
2024-02-29T14:16:13.194Z,11.60
2024-02-29T14:18:48.430Z,14.80
2024-02-29T14:21:22.522Z,147.85
2024-02-29T14:24:08.604Z,92.53
2024-02-29T14:26:44.921Z,32.90
2024-02-29T14:29:14.068Z,40.35
2024-02-29T14:31:45.764Z,122.53
2024-02-29T14:34:21.745Z,34.03
2024-02-29T14:37:00.599Z,62.20
2024-02-29T14:39:51.909Z,93.40
2024-02-29T14:42:27.344Z,34.45
2024-02-29T14:44:57.323Z,31.48
2024-02-29T14:47:26.454Z,11.70
2024-02-29T14:49:57.450Z,6.35
2024-02-29T14:52:40.511Z,85.28
2024-02-29T14:58:16.095Z,37.30
2024-02-29T15:00:57.958Z,46.10
2024-02-29T15:03:34.902Z,25.65
2024-02-29T15:06:03.196Z,8.43
2024-02-29T15:08:38.962Z,6.80
2024-02-29T15:11:10.152Z,7.47
2024-02-29T15:13:45.927Z,24.42
2024-02-29T15:16:15.435Z,90.72
2024-02-29T15:18:47.809Z,38.53
2024-02-29T15:21:15.862Z,4.80
2024-02-29T15:23:47.285Z,17.45
2024-02-29T15:26:15.109Z,41.90
2024-02-29T15:28:49.066Z,81.22
2024-02-29T15:31:26.335Z,84.50
2024-02-29T15:33:53.939Z,9.10
2024-02-29T15:36:24.148Z,10.02
2024-02-29T15:38:52.365Z,5.82
2024-02-29T15:41:19.699Z,11.70
2024-02-29T15:43:50.239Z,23.95
2024-02-29T15:46:19.900Z,218.07
2024-02-29T15:48:48.713Z,73.18
2024-02-29T15:51:23.214Z,36.13
2024-02-29T15:53:52.894Z,8.02
2024-02-29T15:56:21.858Z,19.08
2024-02-29T15:58:58.762Z,5.72
2024-02-29T16:01:36.217Z,4.60
2024-02-29T16:04:05.432Z,5.95
2024-02-29T16:06:33.352Z,5.47
2024-02-29T16:09:01.035Z,50.65
2024-02-29T16:11:31.948Z,78.75
2024-02-29T16:14:02.267Z,10.88
2024-02-29T16:16:37.031Z,17.00
2024-02-29T16:19:06.804Z,6.22
2024-02-29T16:21:34.374Z,77.88
2024-02-29T16:24:07.196Z,21.13
2024-02-29T16:26:34.932Z,5.03
2024-02-29T16:29:05.995Z,64.40
2024-02-29T16:31:37.871Z,5.25
2024-02-29T16:34:08.535Z,5.25
2024-02-29T16:36:46.954Z,4.85
2024-02-29T16:39:22.429Z,19.85
2024-02-29T16:41:50.511Z,15.45
2024-02-29T16:44:27.851Z,5.50
2024-02-29T16:47:01.626Z,15.80
2024-02-29T16:49:30.715Z,4.25
2024-02-29T16:51:58.980Z,3.63
2024-02-29T16:54:26.769Z,4.72
2024-02-29T16:56:56.483Z,40.75
2024-02-29T16:59:25.656Z,12.10
2024-02-29T17:01:56.415Z,7.57
2024-02-29T17:04:24.805Z,5.88
2024-02-29T17:06:58.067Z,10.07
2024-02-29T17:09:46.432Z,5.80
2024-02-29T17:12:18.507Z,4.70
2024-02-29T17:14:45.851Z,3.95
2024-02-29T17:17:15.062Z,5.25
2024-02-29T17:19:48.623Z,6.28
2024-02-29T17:22:18.528Z,5.97
2024-02-29T17:24:47.071Z,7.28
2024-02-29T17:27:16.831Z,17.73
2024-02-29T17:29:44.484Z,20.83
2024-02-29T17:32:12.171Z,6.40
2024-02-29T17:34:47.229Z,7.78
2024-02-29T17:37:15.149Z,5.70
2024-02-29T17:39:45.453Z,7.80
2024-02-29T17:42:12.885Z,6.60
2024-02-29T17:44:40.342Z,8.05
2024-02-29T17:47:10.521Z,6.57
2024-02-29T17:49:40.615Z,6.72
2024-02-29T17:52:11.083Z,7.40
2024-02-29T17:54:41.113Z,5.88
2024-02-29T17:57:11.300Z,8.25
2024-02-29T17:59:48.742Z,6.50
2024-02-29T18:02:34.028Z,9.50
2024-02-29T18:05:06.326Z,7.55
2024-02-29T18:07:36.060Z,7.30
2024-02-29T18:10:11.510Z,6.70
2024-02-29T18:12:42.025Z,6.75
2024-02-29T18:15:16.587Z,6.10
2024-02-29T18:17:45.027Z,5.40
2024-02-29T18:20:18.664Z,6.72
2024-02-29T18:22:46.567Z,6.38
2024-02-29T18:25:14.112Z,6.00
2024-02-29T18:27:49.441Z,6.80
2024-02-29T18:30:26.877Z,6.30
2024-02-29T18:32:56.927Z,5.30
2024-02-29T18:35:27.524Z,5.95
2024-02-29T18:37:55.830Z,5.85
2024-02-29T18:40:23.853Z,6.13
2024-02-29T18:42:51.890Z,5.18
2024-02-29T18:45:19.993Z,6.35
2024-02-29T18:47:47.268Z,6.85
2024-02-29T18:50:14.530Z,6.60
2024-02-29T18:52:45.862Z,5.82
2024-02-29T18:55:13.145Z,7.43
2024-02-29T18:57:42.263Z,6.13
2024-02-29T19:00:11.195Z,6.80
2024-02-29T19:02:42.588Z,6.13
2024-02-29T19:05:10.640Z,7.32
2024-02-29T19:07:41.309Z,8.07
2024-02-29T19:10:15.559Z,8.57
2024-02-29T19:12:47.574Z,8.57
2024-02-29T19:15:19.509Z,8.68
2024-02-29T19:17:48.136Z,7.03
2024-02-29T19:20:16.941Z,9.57
2024-02-29T19:22:53.663Z,8.55
2024-02-29T19:25:23.980Z,8.18
2024-02-29T19:28:01.786Z,6.95
2024-02-29T19:30:32.832Z,6.63
2024-02-29T19:33:55.971Z,6.20
2024-02-29T19:36:27.116Z,8.45
2024-02-29T19:38:58.570Z,9.00
2024-02-29T19:41:25.944Z,8.18
2024-02-29T19:43:58.762Z,6.75
2024-02-29T19:46:26.010Z,7.78
2024-02-29T19:49:14.001Z,8.55
2024-02-29T19:51:51.485Z,7.47
2024-02-29T19:54:26.555Z,7.43
2024-02-29T19:57:24.604Z,8.68
2024-02-29T19:59:57.757Z,8.15
2024-02-29T20:02:32.814Z,7.13
2024-02-29T20:05:03.307Z,9.82
2024-02-29T20:07:36.218Z,8.02
2024-02-29T20:10:04.404Z,10.02
2024-02-29T20:12:48.220Z,9.55
2024-02-29T20:15:41.112Z,7.57
2024-02-29T20:18:08.277Z,7.80
2024-02-29T20:20:37.490Z,8.40
2024-02-29T20:23:05.047Z,8.48
2024-02-29T20:25:59.127Z,7.78
2024-02-29T20:28:30.726Z,8.35
2024-02-29T20:31:16.369Z,10.05
2024-02-29T20:33:45.624Z,8.57
2024-02-29T20:40:55.127Z,10.25
2024-02-29T20:43:22.673Z,11.20
2024-02-29T20:45:52.059Z,11.98
2024-02-29T20:48:21.903Z,12.80
2024-02-29T20:50:52.261Z,11.93
2024-02-29T20:53:23.787Z,7.95
2024-02-29T20:55:53.798Z,10.15
2024-02-29T20:58:22.539Z,8.30
2024-02-29T21:00:50.031Z,9.50
2024-02-29T21:03:22.298Z,10.15
2024-02-29T21:05:59.634Z,14.82
2024-02-29T21:08:33.044Z,83.25
2024-02-29T21:11:03.044Z,106.72
2024-02-29T21:13:35.352Z,151.75
2024-02-29T21:16:03.057Z,117.68
2024-02-29T21:18:33.838Z,25.88
2024-02-29T21:21:03.727Z,120.65
2024-02-29T21:23:34.699Z,78.85
2024-02-29T21:26:03.536Z,82.47
2024-02-29T21:28:34.143Z,42.53
2024-02-29T21:31:04.553Z,53.03
2024-02-29T21:33:32.529Z,68.25
2024-02-29T21:35:59.836Z,64.53
2024-02-29T21:38:31.071Z,61.00
2024-02-29T21:40:58.605Z,115.10
2024-02-29T21:43:26.046Z,71.70
2024-02-29T21:45:53.356Z,84.13
2024-02-29T21:48:21.106Z,52.47
2024-02-29T21:50:51.585Z,48.90
2024-02-29T21:53:19.806Z,108.75
2024-02-29T21:55:50.453Z,188.68
2024-02-29T21:58:27.067Z,109.95
2024-02-29T22:00:59.019Z,51.50
2024-02-29T22:03:28.771Z,68.32
2024-02-29T22:06:03.031Z,139.52
2024-02-29T22:08:35.549Z,153.85
2024-02-29T22:11:03.256Z,150.57
2024-02-29T22:13:38.080Z,75.03
2024-02-29T22:16:05.648Z,87.13
2024-02-29T22:18:42.171Z,146.90
2024-02-29T22:21:09.502Z,78.57
2024-02-29T22:23:36.954Z,86.68
2024-02-29T22:26:07.308Z,126.25
2024-02-29T22:28:34.743Z,81.90
2024-02-29T22:31:02.824Z,49.47
2024-02-29T22:33:40.603Z,175.40
2024-02-29T22:36:10.584Z,51.95
2024-02-29T22:38:42.887Z,83.85
2024-02-29T22:41:17.334Z,108.97
2024-02-29T22:43:47.606Z,148.00
2024-02-29T22:46:15.352Z,261.08
2024-02-29T22:48:49.089Z,47.80
2024-02-29T22:51:21.300Z,195.82
2024-02-29T22:53:51.828Z,162.75
2024-02-29T22:56:23.493Z,87.53
2024-02-29T23:01:21.320Z,109.32
2024-02-29T23:03:49.503Z,53.88
2024-02-29T23:06:20.257Z,50.88
2024-02-29T23:08:47.967Z,168.93
2024-02-29T23:11:20.640Z,107.40
2024-02-29T23:13:48.270Z,74.78
2024-02-29T23:16:15.901Z,103.45
2024-02-29T23:18:43.158Z,41.80
2024-02-29T23:21:11.247Z,86.65
2024-02-29T23:23:43.527Z,45.20
2024-02-29T23:28:46.337Z,16.42
2024-02-29T23:31:14.293Z,35.72
2024-02-29T23:33:42.351Z,136.82
2024-02-29T23:36:09.561Z,184.13
2024-02-29T23:38:37.785Z,135.13
2024-02-29T23:41:05.518Z,104.90
2024-02-29T23:43:35.673Z,93.32
2024-02-29T23:46:08.562Z,64.00
2024-02-29T23:48:36.377Z,88.50
2024-02-29T23:51:05.789Z,48.42
2024-02-29T23:53:33.873Z,84.32
2024-02-29T23:56:01.609Z,30.45
2024-02-29T23:58:49.242Z,15.52
